Terminal Aerodrome Forecast
Issued by NWS

Home | Current Version | Previous Version | Text Only | Print | Product List | Glossary On
Versions: 1 2 3 4 5 6 7 8 9 10 11 12 13 14 15 16 17 18 19 20 21 22 23 24 25 26 27 28 29 30 31 32 33
000
FTAK31 PAFA 011735
TAFAOR
TAF
PAOR 011735Z 0118/0218 00000KT P6SM SCT120
     FM012100 30012KT P6SM VCSH BKN070
     FM020800 30006KT 6SM -RA BKN040=

USA.gov is the U.S. government's official web portal to all federal, state and local government web resources and services.